Time;durP1;ratioP1;P1;durP2;ratioP2;P2;SDS_P1;SDS_P2;PMS_P1;PMS_P2;Temp;Humidity;BMP_temperature;BMP_pressure;BME280_temperature;BME280_humidity;BME280_pressure;Samples;Min_cycle;Max_cycle;Signal;HPM_P1;HPM_P2
2021/07/29 00:00:19;;;;;;;124.33;110.33;;;;;;;15.29;82.25;100623.34;4986511;28;20200;-75
2021/07/29 00:02:44;;;;;;;5.13;4.07;;;;;;;15.59;82.12;100661.06;4987298;28;20190;-75
2021/07/29 00:05:10;;;;;;;179.40;146.00;;;;;;;15.70;81.49;100677.53;4990490;28;20291;-75
2021/07/29 00:07:36;;;;;;;35.83;29.00;;;;;;;15.67;81.03;100664.44;4987032;28;20237;-74
2021/07/29 00:10:03;;;;;;;58.97;52.77;;;;;;;15.70;81.20;100680.22;4987528;28;20968;-75
2021/07/29 00:12:28;;;;;;;32.73;23.57;;;;;;;15.69;81.25;100656.97;4992126;28;20203;-74
2021/07/29 00:14:53;;;;;;;54.87;43.77;;;;;;;15.27;80.24;100559.78;4986092;28;21023;-74
2021/07/29 00:20:21;;;;;;;18.97;15.23;;;;;;;15.84;80.17;100664.59;4938642;28;20187;-74
2021/07/29 00:22:49;;;;;;;7.83;4.20;;;;;;;15.85;80.08;100664.31;4989033;28;20539;-74
2021/07/29 00:25:15;;;;;;;158.77;140.77;;;;;;;15.38;80.72;100599.47;4986351;28;20431;-75
2021/07/29 00:27:44;;;;;;;15.43;13.37;;;;;;;15.74;80.44;100651.69;4985457;28;20468;-74
2021/07/29 00:30:11;;;;;;;114.37;101.80;;;;;;;15.70;80.55;100643.19;4985288;28;20570;-75
2021/07/29 00:32:37;;;;;;;49.53;43.97;;;;;;;15.57;80.90;100646.94;4991576;28;20446;-74
2021/07/29 00:35:05;;;;;;;116.07;101.87;;;;;;;15.63;80.54;100656.00;4985638;28;20472;-75
2021/07/29 00:37:31;;;;;;;88.90;72.50;;;;;;;15.46;81.20;100630.75;4985728;28;20482;-75
2021/07/29 00:39:56;;;;;;;33.30;28.20;;;;;;;15.56;80.94;100642.63;4987564;28;20436;-74
2021/07/29 00:42:22;;;;;;;192.43;172.07;;;;;;;15.29;80.94;100582.00;4985851;28;20455;-75
2021/07/29 00:44:47;;;;;;;258.00;229.60;;;;;;;15.11;80.46;100542.41;4988061;28;20229;-76
2021/07/29 00:47:16;;;;;;;303.80;269.73;;;;;;;15.59;80.32;100623.22;4990386;28;20232;-75
2021/07/29 00:49:42;;;;;;;4.50;3.30;;;;;;;15.48;80.16;100585.38;4989295;28;20697;-74
2021/07/29 00:52:07;;;;;;;118.53;105.50;;;;;;;15.68;80.60;100625.56;4988899;28;20626;-75
2021/07/29 00:54:32;;;;;;;6.13;3.83;;;;;;;15.56;80.29;100598.50;4990190;28;20448;-75
2021/07/29 00:56:59;;;;;;;188.30;131.07;;;;;;;15.28;80.31;100570.38;4987029;28;20351;-75
2021/07/29 00:59:25;;;;;;;408.67;365.83;;;;;;;15.30;80.53;100562.84;4985916;28;20188;-75
2021/07/29 01:01:50;;;;;;;6.13;2.97;;;;;;;15.43;80.87;100582.56;4988169;28;20442;-74
2021/07/29 01:04:16;;;;;;;68.03;60.57;;;;;;;15.21;80.86;100542.63;4989994;28;20439;-74
2021/07/29 01:06:42;;;;;;;38.17;32.50;;;;;;;15.21;80.41;100553.44;4993124;28;20435;-74
2021/07/29 01:09:09;;;;;;;179.97;160.77;;;;;;;15.44;80.46;100578.78;4983702;28;20519;-74
2021/07/29 01:11:39;;;;;;;7.27;4.27;;;;;;;15.58;80.03;100599.94;4989168;28;20189;-74
2021/07/29 01:14:05;;;;;;;151.07;135.83;;;;;;;15.53;80.41;100605.22;4987774;28;20526;-75
2021/07/29 01:16:30;;;;;;;151.90;135.87;;;;;;;15.47;79.48;100608.06;4991639;28;20991;-76
2021/07/29 01:18:57;;;;;;;319.53;286.73;;;;;;;15.50;79.97;100602.16;4986512;28;20845;-76
2021/07/29 01:21:25;;;;;;;45.00;39.03;;;;;;;14.98;80.34;100521.03;4985660;28;20221;-74
2021/07/29 01:23:51;;;;;;;565.50;505.73;;;;;;;15.44;79.52;100566.09;4987801;28;20448;-74
2021/07/29 01:26:16;;;;;;;453.80;408.27;;;;;;;15.56;79.96;100618.28;4982022;28;20436;-74
2021/07/29 01:28:41;;;;;;;126.97;96.63;;;;;;;15.52;79.50;100606.28;4989816;28;20189;-74
2021/07/29 01:31:07;;;;;;;406.93;333.70;;;;;;;15.50;79.24;100589.47;4986261;28;20270;-75
2021/07/29 01:33:32;;;;;;;310.50;276.20;;;;;;;15.41;79.01;100574.69;4987057;28;20185;-74
2021/07/29 01:35:58;;;;;;;128.37;110.93;;;;;;;15.57;78.30;100586.66;4992593;28;20575;-74
2021/07/29 01:38:23;;;;;;;149.50;133.17;;;;;;;15.31;79.22;100555.56;4989388;28;20216;-75
2021/07/29 01:40:48;;;;;;;8.20;4.87;;;;;;;15.65;78.76;100589.00;4986517;28;20272;-74
2021/07/29 01:43:14;;;;;;;443.50;372.20;;;;;;;15.46;78.58;100596.44;4993050;28;20219;-76
2021/07/29 01:45:39;;;;;;;219.30;147.03;;;;;;;15.62;78.40;100602.97;4984031;28;20189;-76
2021/07/29 01:48:07;;;;;;;110.57;94.77;;;;;;;15.58;79.56;100605.34;4985697;28;20213;-75
2021/07/29 01:50:32;;;;;;;5.27;3.07;;;;;;;15.43;78.77;100552.84;4990761;28;20189;-75
2021/07/29 01:52:57;;;;;;;73.77;57.77;;;;;;;15.68;79.06;100618.28;4990174;28;20550;-75
2021/07/29 01:55:23;;;;;;;4.67;2.77;;;;;;;15.47;79.83;100581.84;4994257;28;20200;-75
2021/07/29 01:57:49;;;;;;;19.53;13.93;;;;;;;15.44;80.62;100603.13;4986718;28;20204;-75
2021/07/29 02:00:15;;;;;;;125.87;113.40;;;;;;;15.45;79.92;100583.97;4991982;28;20208;-75
2021/07/29 02:02:40;;;;;;;7.33;5.10;;;;;;;15.54;80.86;100615.00;4991024;28;20193;-74
2021/07/29 02:05:06;;;;;;;5.80;2.97;;;;;;;15.15;81.70;100562.50;4996749;28;20479;-72
2021/07/29 02:07:31;;;;;;;26.37;22.63;;;;;;;14.87;80.86;100533.50;4991571;28;20213;-73
2021/07/29 02:09:56;;;;;;;244.37;219.17;;;;;;;15.69;79.94;100633.44;4986901;28;20197;-72
2021/07/29 02:12:22;;;;;;;5.50;4.27;;;;;;;15.68;80.20;100647.19;4993056;28;20216;-73
2021/07/29 02:14:47;;;;;;;82.70;73.60;;;;;;;15.57;79.64;100657.75;4992681;28;20215;-74
2021/07/29 02:17:13;;;;;;;7.27;4.60;;;;;;;15.26;79.48;100596.78;4994266;28;20577;-73
2021/07/29 02:19:38;;;;;;;6.33;5.17;;;;;;;15.38;80.01;100643.53;4992423;28;20212;-73
2021/07/29 02:22:03;;;;;;;5.93;5.37;;;;;;;15.30;79.98;100632.25;4997662;28;20197;-73
2021/07/29 02:24:29;;;;;;;5.30;3.63;;;;;;;15.26;79.93;100640.03;5007410;28;20185;-72
2021/07/29 02:26:54;;;;;;;2.90;2.43;;;;;;;15.19;81.14;100643.88;4991543;28;20713;-73
2021/07/29 02:29:19;;;;;;;5.87;2.80;;;;;;;15.21;81.02;100617.47;5000729;28;20184;-73
2021/07/29 02:31:45;;;;;;;5.53;3.97;;;;;;;15.35;81.30;100643.19;4996374;28;20189;-72
2021/07/29 02:34:10;;;;;;;49.97;42.60;;;;;;;15.42;79.90;100641.22;4997847;28;20188;-73
2021/07/29 02:36:35;;;;;;;2.47;1.50;;;;;;;15.36;79.40;100640.28;4993892;28;20243;-72
2021/07/29 02:39:01;;;;;;;2.13;1.50;;;;;;;15.23;79.98;100635.09;4995530;28;20216;-73
2021/07/29 02:41:26;;;;;;;2.13;1.93;;;;;;;15.02;80.68;100633.78;4993859;28;20205;-73
2021/07/29 02:43:52;;;;;;;331.87;296.63;;;;;;;14.59;80.75;100575.47;4993600;28;20199;-73
2021/07/29 02:46:17;;;;;;;4.80;2.03;;;;;;;14.68;82.05;100627.25;4999298;28;20193;-73
2021/07/29 02:48:43;;;;;;;2.03;1.43;;;;;;;14.99;81.73;100645.06;4991767;28;20186;-75
2021/07/29 02:51:08;;;;;;;2.87;1.60;;;;;;;15.10;80.79;100629.91;4997937;28;20186;-72
2021/07/29 02:53:34;;;;;;;43.40;20.93;;;;;;;14.57;81.67;100577.59;4999285;28;20189;-76
2021/07/29 02:56:00;;;;;;;41.83;33.43;;;;;;;14.82;82.65;100636.81;4993297;28;20218;-73
2021/07/29 02:58:26;;;;;;;30.03;24.87;;;;;;;14.94;82.45;100641.41;4992780;28;20436;-73
2021/07/29 03:00:52;;;;;;;8.20;2.37;;;;;;;15.07;82.18;100628.50;4993948;28;21019;-73
2021/07/29 03:03:17;;;;;;;195.20;164.17;;;;;;;15.04;82.02;100618.19;4993955;28;20716;-74
2021/07/29 03:05:43;;;;;;;163.13;146.10;;;;;;;14.84;82.20;100583.41;4990874;28;20459;-75
2021/07/29 03:08:08;;;;;;;5.67;4.67;;;;;;;14.77;83.63;100598.88;4994402;28;20220;-74
2021/07/29 03:10:36;;;;;;;71.93;61.27;;;;;;;15.02;83.13;100620.28;5002775;28;20194;-74
2021/07/29 03:13:03;;;;;;;119.77;106.27;;;;;;;14.95;83.65;100633.06;4996482;28;20251;-74
2021/07/29 03:15:30;;;;;;;147.67;130.97;;;;;;;14.93;83.61;100637.88;4996077;28;20478;-74
2021/07/29 03:17:56;;;;;;;34.23;30.67;;;;;;;14.93;82.09;100651.38;4995740;28;20459;-74
2021/07/29 03:20:21;;;;;;;292.70;244.90;;;;;;;14.63;79.95;100609.03;4991466;28;20519;-75
2021/07/29 03:22:47;;;;;;;9.90;4.03;;;;;;;14.90;78.95;100635.66;4994592;28;20200;-74
2021/07/29 03:25:12;;;;;;;10.50;4.97;;;;;;;14.32;78.63;100598.47;4991236;28;20630;-75
2021/07/29 03:27:38;;;;;;;15.20;11.37;;;;;;;14.69;77.39;100635.16;4992427;28;20210;-74
2021/07/29 03:30:04;;;;;;;37.43;33.53;;;;;;;14.72;76.01;100643.81;4996527;28;20285;-74
2021/07/29 03:32:29;;;;;;;1.90;1.60;;;;;;;14.75;76.20;100624.44;4993090;28;20717;-74
2021/07/29 03:34:55;;;;;;;1.73;1.20;;;;;;;14.76;76.98;100647.72;4994480;28;20464;-74
2021/07/29 03:37:20;;;;;;;3.27;1.30;;;;;;;14.90;74.77;100639.16;4992853;28;20228;-73
2021/07/29 03:39:45;;;;;;;3.03;1.23;;;;;;;14.40;75.58;100617.03;4992696;28;20218;-74
2021/07/29 03:42:11;;;;;;;5.70;1.10;;;;;;;14.49;75.44;100658.84;4993298;28;20567;-74
2021/07/29 03:44:36;;;;;;;1.93;1.00;;;;;;;14.49;74.15;100656.13;4998511;28;20351;-74
2021/07/29 03:47:02;;;;;;;0.70;0.70;;;;;;;13.69;73.47;100586.25;4996613;28;20280;-75
2021/07/29 03:49:27;;;;;;;1.03;0.80;;;;;;;13.73;75.96;100609.81;4997694;28;20181;-74
2021/07/29 03:51:52;;;;;;;40.33;16.33;;;;;;;14.00;75.71;100658.03;4993156;28;20177;-74
2021/07/29 03:54:18;;;;;;;1.63;0.90;;;;;;;14.11;75.23;100659.13;4993335;28;20720;-75
2021/07/29 03:56:43;;;;;;;0.73;0.73;;;;;;;14.37;74.24;100663.38;4992098;28;20248;-74
2021/07/29 03:59:09;;;;;;;1.73;0.80;;;;;;;14.30;75.58;100663.47;4993528;28;20194;-73
2021/07/29 04:01:34;;;;;;;1.97;0.90;;;;;;;13.81;75.59;100637.53;4999124;28;20188;-74
2021/07/29 04:03:59;;;;;;;1.53;0.60;;;;;;;13.91;75.43;100632.41;4997502;28;20189;-74
2021/07/29 04:06:25;;;;;;;1.30;0.77;;;;;;;13.82;75.98;100656.16;4990723;28;20292;-74
2021/07/29 04:08:50;;;;;;;2.03;1.53;;;;;;;13.47;75.64;100599.31;4994307;28;20205;-76
2021/07/29 04:11:15;;;;;;;3.93;3.60;;;;;;;13.64;77.21;100685.81;4995795;28;20192;-76
2021/07/29 04:13:41;;;;;;;1.10;0.70;;;;;;;13.26;77.35;100616.75;4999968;28;20250;-75
2021/07/29 04:16:06;;;;;;;17.67;15.43;;;;;;;12.94;77.92;100589.03;4992870;28;20244;-75
2021/07/29 04:18:32;;;;;;;6.63;5.77;;;;;;;13.71;77.12;100664.97;4986350;28;22077;-76
2021/07/29 04:20:58;;;;;;;7.40;4.67;;;;;;;13.46;78.07;100657.78;4990582;28;20195;-76
2021/07/29 04:23:23;;;;;;;2.57;1.30;;;;;;;13.56;77.18;100665.34;4996667;28;20786;-76
2021/07/29 04:25:48;;;;;;;2.30;0.70;;;;;;;13.20;78.07;100604.97;5000090;28;20456;-74
2021/07/29 04:28:14;;;;;;;5.00;0.90;;;;;;;13.12;78.26;100599.84;4988889;28;20204;-74
2021/07/29 04:30:39;;;;;;;3.10;2.87;;;;;;;13.66;78.64;100683.72;4991650;28;20200;-75
2021/07/29 04:33:08;;;;;;;0.60;0.60;;;;;;;13.64;79.25;100691.19;4996180;28;20578;-75
2021/07/29 04:35:34;;;;;;;3.13;0.80;;;;;;;13.75;78.94;100693.97;4996519;28;20204;-75
2021/07/29 04:37:59;;;;;;;1.77;0.87;;;;;;;13.68;78.05;100649.25;4990817;28;20965;-74
2021/07/29 04:40:25;;;;;;;1.47;0.70;;;;;;;13.85;78.55;100688.06;4989753;28;20201;-74
2021/07/29 04:42:50;;;;;;;10.97;6.07;;;;;;;13.67;78.79;100653.00;4987071;28;20616;-74
2021/07/29 04:45:15;;;;;;;94.17;79.90;;;;;;;14.12;78.06;100690.47;5000279;28;20213;-74
2021/07/29 04:47:41;;;;;;;19.60;15.90;;;;;;;13.70;78.82;100669.56;4998695;28;20232;-76
2021/07/29 04:50:06;;;;;;;2.30;1.30;;;;;;;14.05;78.54;100698.63;4990395;28;20186;-75
2021/07/29 04:52:32;;;;;;;6.93;6.10;;;;;;;13.97;78.66;100678.19;4992273;28;20252;-75
2021/07/29 04:54:57;;;;;;;7.00;4.40;;;;;;;13.96;79.59;100690.00;4992249;28;20647;-75
2021/07/29 04:57:22;;;;;;;2.30;2.10;;;;;;;13.62;79.46;100605.16;4994825;28;20338;-76
2021/07/29 04:59:48;;;;;;;9.67;5.93;;;;;;;14.29;78.92;100688.81;4993547;28;20240;-75
2021/07/29 05:02:17;;;;;;;6.80;4.10;;;;;;;14.04;80.17;100680.00;4992267;28;20185;-75
2021/07/29 05:04:42;;;;;;;3.57;2.00;;;;;;;14.18;80.45;100682.28;4990751;28;20190;-75
2021/07/29 05:07:11;;;;;;;3.80;1.00;;;;;;;14.16;80.41;100688.97;4991950;28;21303;-75
2021/07/29 05:09:36;;;;;;;6.67;1.43;;;;;;;13.68;81.05;100614.22;4989109;28;21211;-75
2021/07/29 05:12:02;;;;;;;2.20;1.53;;;;;;;14.28;80.77;100697.13;5001174;28;20532;-75
2021/07/29 05:14:27;;;;;;;4.43;3.53;;;;;;;14.12;81.40;100685.91;4995416;28;20280;-76
2021/07/29 05:16:53;;;;;;;3.70;1.20;;;;;;;14.38;80.55;100697.41;4997978;28;20222;-74
2021/07/29 05:19:18;;;;;;;109.23;84.40;;;;;;;13.99;81.00;100649.09;4993152;28;20194;-75
2021/07/29 05:21:44;;;;;;;2.37;1.17;;;;;;;14.28;80.25;100653.94;4997463;28;20544;-75
2021/07/29 05:24:09;;;;;;;25.23;19.43;;;;;;;14.04;80.69;100653.84;4992670;28;20218;-75
2021/07/29 05:26:36;;;;;;;3.33;1.57;;;;;;;13.97;80.89;100631.50;4992324;28;20460;-75
2021/07/29 05:29:01;;;;;;;51.97;45.13;;;;;;;14.44;80.39;100704.59;5001614;28;20280;-75
2021/07/29 05:31:27;;;;;;;90.87;78.13;;;;;;;14.21;81.34;100681.84;4997429;28;20527;-75
2021/07/29 05:33:52;;;;;;;121.57;102.40;;;;;;;14.48;81.03;100700.38;5001161;28;20826;-75
2021/07/29 05:36:17;;;;;;;17.53;14.97;;;;;;;14.39;80.72;100675.59;5010308;28;20209;-74
2021/07/29 05:38:43;;;;;;;4.80;1.93;;;;;;;14.77;79.76;100693.38;5009141;28;20193;-74
2021/07/29 05:41:09;;;;;;;52.10;36.03;;;;;;;14.67;79.73;100693.94;4994783;28;20207;-75
2021/07/29 05:43:39;;;;;;;8.60;5.00;;;;;;;14.77;79.89;100685.25;4999318;28;20185;-74
2021/07/29 05:46:11;;;;;;;327.73;258.63;;;;;;;14.41;79.25;100641.13;4997991;28;20417;-74
2021/07/29 05:48:40;;;;;;;5.47;1.90;;;;;;;14.60;80.10;100668.88;5000706;28;20443;-74
2021/07/29 05:51:06;;;;;;;5.20;2.17;;;;;;;14.73;79.85;100700.28;4997405;28;20416;-75
2021/07/29 05:53:31;;;;;;;4.43;1.77;;;;;;;14.90;78.64;100703.16;4998588;28;20872;-74
2021/07/29 05:55:59;;;;;;;35.47;29.77;;;;;;;14.86;78.83;100696.56;5007744;28;20560;-75
2021/07/29 05:58:24;;;;;;;373.37;336.47;;;;;;;14.72;78.59;100666.22;4998269;28;20280;-75
2021/07/29 06:00:50;;;;;;;9.07;5.77;;;;;;;14.42;79.16;100617.66;5001343;28;20523;-74
2021/07/29 06:03:15;;;;;;;9.10;2.00;;;;;;;14.94;78.56;100696.25;5001080;28;20189;-75
2021/07/29 06:05:41;;;;;;;18.67;14.10;;;;;;;15.04;78.14;100690.25;5000588;28;20548;-75
2021/07/29 06:08:06;;;;;;;153.27;128.67;;;;;;;15.17;78.25;100706.28;5000641;28;20235;-76
2021/07/29 06:10:32;;;;;;;4.77;1.70;;;;;;;14.87;78.80;100677.44;5000866;28;20189;-74
2021/07/29 06:12:57;;;;;;;205.47;182.10;;;;;;;14.85;78.62;100649.03;5002821;28;20180;-76
2021/07/29 06:15:22;;;;;;;83.43;68.53;;;;;;;15.22;78.75;100702.88;4996193;28;20688;-75
2021/07/29 06:17:52;;;;;;;7.57;1.53;;;;;;;15.27;78.87;100700.28;4998059;28;20713;-75
2021/07/29 06:20:17;;;;;;;70.90;63.47;;;;;;;15.04;78.81;100693.81;5000211;28;20276;-76
2021/07/29 06:22:42;;;;;;;176.93;153.37;;;;;;;14.89;79.16;100677.19;4997850;28;20928;-76
2021/07/29 06:25:09;;;;;;;26.90;16.17;;;;;;;15.25;78.81;100683.50;4999542;28;20189;-76
2021/07/29 06:27:36;;;;;;;8.70;2.47;;;;;;;15.31;77.99;100675.28;5001113;28;20458;-75
2021/07/29 06:30:03;;;;;;;23.97;12.00;;;;;;;14.94;79.01;100627.91;5004597;28;21018;-75
2021/07/29 06:32:28;;;;;;;445.90;223.47;;;;;;;15.28;78.08;100718.16;4998392;28;20432;-74
2021/07/29 06:34:54;;;;;;;173.67;140.33;;;;;;;15.27;78.18;100713.78;4999255;28;20991;-74
2021/07/29 06:37:19;;;;;;;16.27;6.57;;;;;;;14.96;78.30;100637.41;5000186;28;20209;-75
2021/07/29 06:39:45;;;;;;;33.30;24.07;;;;;;;15.48;76.73;100697.03;5002019;28;20189;-75
2021/07/29 06:42:11;;;;;;;78.83;60.77;;;;;;;15.67;76.16;100686.91;5000976;28;20190;-74
2021/07/29 06:44:43;;;;;;;127.43;111.37;;;;;;;15.59;75.97;100692.66;4998465;28;20194;-75
2021/07/29 06:47:18;;;;;;;9.80;2.43;;;;;;;15.67;76.74;100702.31;4993271;28;20459;-75
2021/07/29 06:49:44;;;;;;;261.77;212.03;;;;;;;15.28;76.58;100642.50;5003190;28;20799;-74
2021/07/29 06:52:13;;;;;;;77.27;58.50;;;;;;;15.78;76.19;100691.50;4995687;28;20499;-75
2021/07/29 06:54:39;;;;;;;7.80;3.80;;;;;;;15.79;76.43;100706.69;5000361;28;20276;-75
2021/07/29 06:57:08;;;;;;;9.20;2.17;;;;;;;15.52;74.99;100638.72;5002019;28;20459;-76
2021/07/29 06:59:35;;;;;;;256.17;228.63;;;;;;;16.00;74.46;100697.13;4995026;28;21005;-75
2021/07/29 07:02:01;;;;;;;53.90;48.03;;;;;;;16.03;75.23;100699.38;5002119;28;20432;-75
2021/07/29 07:04:27;;;;;;;75.10;58.90;;;;;;;16.17;74.49;100707.19;4996168;28;20510;-75
2021/07/29 07:06:52;;;;;;;3.93;3.57;;;;;;;16.14;74.79;100707.69;4998757;28;20464;-75
2021/07/29 07:09:18;;;;;;;116.03;66.67;;;;;;;15.93;74.33;100692.91;4993694;28;20460;-75
2021/07/29 07:11:43;;;;;;;12.03;6.63;;;;;;;15.85;74.76;100690.56;4999165;28;20193;-75
2021/07/29 07:14:09;;;;;;;9.80;3.93;;;;;;;16.14;73.73;100716.66;4999025;28;20248;-75
2021/07/29 07:16:35;;;;;;;4.97;1.77;;;;;;;15.93;73.00;100682.91;5001620;28;20232;-75
2021/07/29 07:19:01;;;;;;;4.33;1.17;;;;;;;16.21;72.93;100730.03;4995857;28;20189;-74
2021/07/29 07:21:26;;;;;;;11.03;5.23;;;;;;;15.93;73.31;100645.03;4995955;28;20451;-75
2021/07/29 07:23:52;;;;;;;14.93;4.33;;;;;;;15.67;73.11;100613.09;5001502;28;20181;-75
2021/07/29 07:26:22;;;;;;;232.77;207.20;;;;;;;16.31;72.63;100710.47;5001116;28;20228;-75
2021/07/29 07:28:49;;;;;;;5.30;1.80;;;;;;;16.41;72.28;100725.03;5000230;28;20260;-75
2021/07/29 07:31:16;;;;;;;6.67;1.70;;;;;;;16.47;72.78;100704.31;4998131;28;20436;-75
2021/07/29 07:33:41;;;;;;;12.93;8.93;;;;;;;16.35;72.09;100703.53;4997872;28;22437;-74
2021/07/29 07:36:09;;;;;;;59.27;37.93;;;;;;;16.39;71.81;100713.63;4997429;28;20534;-74
2021/07/29 07:38:34;;;;;;;249.23;177.97;;;;;;;16.42;71.39;100721.25;4999562;28;20303;-75
2021/07/29 07:41:09;;;;;;;7.10;2.97;;;;;;;16.59;72.33;100718.59;4995147;28;20562;-76
2021/07/29 07:43:35;;;;;;;7.70;1.90;;;;;;;16.65;71.32;100719.53;4992545;28;20189;-74
2021/07/29 07:46:01;;;;;;;14.43;9.10;;;;;;;16.57;71.64;100714.50;4994578;28;20437;-75
2021/07/29 07:48:27;;;;;;;4.97;1.83;;;;;;;16.56;70.56;100718.28;5000814;28;20463;-75
2021/07/29 07:50:53;;;;;;;8.80;2.60;;;;;;;16.66;69.23;100713.03;4999447;28;20456;-75
2021/07/29 07:53:25;;;;;;;19.30;9.10;;;;;;;16.77;69.26;100717.63;4995090;28;20190;-75
2021/07/29 07:55:51;;;;;;;16.83;4.30;;;;;;;16.76;68.84;100699.72;5001707;28;21113;-75
2021/07/29 07:58:16;;;;;;;4.63;1.57;;;;;;;16.49;68.76;100639.91;4994059;28;20460;-75
2021/07/29 08:00:42;;;;;;;74.43;43.53;;;;;;;16.94;68.68;100714.94;4996795;28;20439;-75
2021/07/29 08:03:07;;;;;;;4.20;1.43;;;;;;;16.65;68.28;100652.66;5001090;28;20225;-76
2021/07/29 08:05:33;;;;;;;18.13;14.43;;;;;;;16.30;68.23;100625.75;5002853;28;20192;-75
2021/07/29 08:08:00;;;;;;;4.47;1.50;;;;;;;16.63;68.43;100616.03;5000318;28;20210;-75
2021/07/29 08:10:27;;;;;;;8.03;1.97;;;;;;;17.30;67.90;100697.41;4995316;28;20174;-75
2021/07/29 08:12:53;;;;;;;68.17;27.67;;;;;;;16.83;67.45;100665.19;4999714;28;20482;-74
2021/07/29 08:15:18;;;;;;;7.90;2.17;;;;;;;17.06;68.70;100720.31;4996874;28;21245;-75
2021/07/29 08:17:44;;;;;;;8.40;2.60;;;;;;;16.99;68.81;100703.38;4997239;28;20201;-76
2021/07/29 08:20:09;;;;;;;149.63;87.70;;;;;;;16.99;67.74;100677.13;4997292;28;20658;-76
2021/07/29 08:22:35;;;;;;;11.03;5.50;;;;;;;16.85;67.04;100617.00;4993832;28;20185;-75
2021/07/29 08:25:00;;;;;;;196.17;78.73;;;;;;;17.32;65.86;100725.06;4996194;28;20250;-74
2021/07/29 08:27:25;;;;;;;75.80;20.93;;;;;;;17.16;64.57;100686.06;4993188;28;20719;-77
2021/07/29 08:29:51;;;;;;;6.57;2.27;;;;;;;17.38;64.51;100696.97;4996241;28;20185;-76
2021/07/29 08:32:16;;;;;;;37.57;10.10;;;;;;;17.25;65.48;100653.97;4998440;28;20185;-76
2021/07/29 08:34:42;;;;;;;51.87;35.40;;;;;;;17.08;65.38;100666.69;4995722;28;20205;-75
2021/07/29 08:37:07;;;;;;;12.47;1.77;;;;;;;17.21;66.21;100662.81;5001278;28;20201;-79
2021/07/29 08:39:32;;;;;;;9.60;2.20;;;;;;;17.34;65.74;100701.25;5002160;28;20185;-75
2021/07/29 08:41:58;;;;;;;45.30;22.80;;;;;;;17.19;66.01;100668.50;5002458;28;20225;-77
2021/07/29 08:44:24;;;;;;;31.80;17.60;;;;;;;17.29;64.51;100671.34;4992828;28;20574;-77
2021/07/29 08:46:50;;;;;;;8.07;1.87;;;;;;;17.37;65.97;100702.66;5000682;28;20344;-76
2021/07/29 08:49:15;;;;;;;3.70;1.43;;;;;;;17.56;66.32;100712.19;5001556;28;20797;-77
2021/07/29 08:51:41;;;;;;;283.93;72.80;;;;;;;17.16;66.42;100687.97;5002622;28;20196;-78
2021/07/29 08:54:11;;;;;;;166.63;125.50;;;;;;;16.82;67.29;100586.88;5000121;28;20604;-74
2021/07/29 08:56:37;;;;;;;8.33;1.83;;;;;;;17.54;67.01;100736.00;4995911;28;20210;-74
2021/07/29 08:59:02;;;;;;;40.23;23.73;;;;;;;17.57;66.83;100730.09;4995978;28;20423;-73
2021/07/29 09:01:45;;;;;;;14.33;3.17;;;;;;;17.69;66.56;100721.03;4994506;28;20242;-72
2021/07/29 09:04:12;;;;;;;4.13;1.50;;;;;;;17.81;65.76;100713.66;5003350;28;20208;-76
2021/07/29 09:07:02;;;;;;;8.57;2.80;;;;;;;17.96;64.78;100721.16;5000737;28;20459;-75
2021/07/29 09:09:45;;;;;;;3.80;1.53;;;;;;;17.63;63.67;100636.88;4999861;28;21377;-76
2021/07/29 09:12:18;;;;;;;14.13;5.50;;;;;;;17.67;63.69;100723.16;4997911;28;20496;-76
2021/07/29 09:14:44;;;;;;;8.03;3.63;;;;;;;17.45;62.99;100734.78;5000145;28;21331;-77
2021/07/29 09:17:10;;;;;;;10.90;1.90;;;;;;;17.46;64.06;100728.28;4996075;28;20463;-75
2021/07/29 09:19:38;;;;;;;5.27;2.00;;;;;;;16.98;64.33;100659.22;4996438;28;20804;-78
2021/07/29 09:22:23;;;;;;;6.30;4.00;;;;;;;16.38;63.25;100597.47;5002373;28;20209;-75
2021/07/29 09:25:09;;;;;;;6.10;2.10;;;;;;;16.77;63.45;100649.09;4997308;28;20449;-75
2021/07/29 09:27:37;;;;;;;5.50;2.10;;;;;;;17.18;63.99;100734.59;5000974;28;20838;-77
2021/07/29 09:30:24;;;;;;;6.40;2.40;;;;;;;16.68;65.04;100673.81;4999863;28;20479;-77
2021/07/29 09:33:12;;;;;;;3.67;1.80;;;;;;;17.19;65.23;100749.00;4999873;28;20920;-76
2021/07/29 09:35:50;;;;;;;5.77;2.30;;;;;;;17.11;64.55;100755.63;5000706;28;20471;-79
2021/07/29 09:38:23;;;;;;;5.17;2.00;;;;;;;17.28;64.73;100751.03;5002119;28;20532;-75
2021/07/29 09:40:54;;;;;;;7.37;2.83;;;;;;;17.25;65.08;100753.44;4999488;28;20472;-74
2021/07/29 09:43:25;;;;;;;9.20;4.33;;;;;;;16.63;65.51;100687.25;5000878;28;20416;-79
2021/07/29 09:45:53;;;;;;;9.43;4.20;;;;;;;17.11;65.45;100766.47;5002874;28;20451;-75
2021/07/29 09:48:22;;;;;;;33.37;12.80;;;;;;;17.09;64.67;100745.00;4994390;28;20468;-76
2021/07/29 09:50:55;;;;;;;6.00;2.37;;;;;;;17.20;64.87;100751.44;5000187;28;20448;-77
2021/07/29 09:53:25;;;;;;;12.43;3.73;;;;;;;17.04;65.38;100750.38;4999403;28;20882;-79
2021/07/29 09:55:50;;;;;;;6.17;1.90;;;;;;;17.05;65.43;100721.38;5000211;28;20482;-76
2021/07/29 09:58:16;;;;;;;4.10;1.90;;;;;;;16.81;67.65;100726.91;5001743;28;20899;-77
2021/07/29 10:00:42;;;;;;;7.77;1.73;;;;;;;16.70;66.32;100714.22;4995414;28;20208;-77
2021/07/29 10:03:11;;;;;;;8.40;2.03;;;;;;;16.56;65.91;100688.50;4997453;28;20260;-80
2021/07/29 10:05:45;;;;;;;29.67;11.23;;;;;;;16.79;70.09;100774.28;4999676;28;20985;-76
2021/07/29 10:08:19;;;;;;;7.37;2.63;;;;;;;16.09;76.04;100786.06;4999394;28;20459;-75
2021/07/29 10:10:45;;;;;;;6.50;2.57;;;;;;;15.79;79.20;100795.94;5000463;28;20443;-75
2021/07/29 10:13:11;;;;;;;31.60;23.80;;;;;;;15.89;79.53;100799.94;5001511;28;20940;-75
2021/07/29 10:15:42;;;;;;;9.53;3.60;;;;;;;16.02;78.71;100789.69;4999752;28;20232;-78
2021/07/29 10:18:09;;;;;;;9.93;3.40;;;;;;;15.99;77.66;100730.63;5002654;28;20212;-75
2021/07/29 10:20:35;;;;;;;10.73;2.73;;;;;;;16.23;76.62;100714.38;4994678;28;20445;-76
2021/07/29 10:23:13;;;;;;;23.03;14.90;;;;;;;16.72;79.01;100774.34;5002199;28;21150;-77
2021/07/29 10:25:54;;;;;;;185.90;151.17;;;;;;;16.91;75.50;100783.97;4994067;28;20471;-76
2021/07/29 10:28:20;;;;;;;97.77;83.60;;;;;;;17.10;72.93;100786.50;5000665;28;20447;-76
2021/07/29 10:30:55;;;;;;;35.20;19.90;;;;;;;16.94;72.45;100739.34;4995529;28;20440;-77
2021/07/29 10:33:23;;;;;;;15.23;3.77;;;;;;;17.42;70.66;100791.41;5007937;28;20446;-77
2021/07/29 10:35:53;;;;;;;7.93;2.40;;;;;;;17.00;70.36;100779.00;5002682;28;20460;-77
2021/07/29 10:38:50;;;;;;;59.40;25.77;;;;;;;16.99;68.14;100787.38;4999314;28;20546;-78
2021/07/29 10:41:22;;;;;;;109.27;44.30;;;;;;;16.91;69.37;100792.09;5000659;28;20455;-76
2021/07/29 10:43:47;;;;;;;6.10;2.27;;;;;;;16.75;69.51;100759.50;5000900;28;20468;-77
2021/07/29 10:46:13;;;;;;;8.33;2.77;;;;;;;16.78;68.88;100770.75;5000847;28;20883;-76
2021/07/29 10:48:43;;;;;;;3.00;2.10;;;;;;;17.17;68.33;100789.88;5003227;28;20189;-77
2021/07/29 10:51:12;;;;;;;7.10;2.50;;;;;;;17.40;69.30;100787.03;5004953;28;20205;-80
2021/07/29 10:53:42;;;;;;;4.30;1.77;;;;;;;17.69;66.25;100795.09;5005209;28;20441;-76
2021/07/29 10:56:12;;;;;;;21.40;8.80;;;;;;;18.00;66.89;100784.75;5002996;28;20479;-77
2021/07/29 10:58:45;;;;;;;16.03;6.93;;;;;;;18.18;64.54;100784.44;5005233;28;20428;-79
2021/07/29 11:01:12;;;;;;;246.77;77.17;;;;;;;18.04;64.59;100739.75;4999667;28;20499;-76
2021/07/29 11:06:37;;;;;;;3.50;1.57;;;;;;;18.74;62.31;100804.19;4995555;28;20436;-77
2021/07/29 11:09:19;;;;;;;10.80;6.00;;;;;;;18.41;60.88;100777.97;5002343;28;20473;-77
2021/07/29 11:11:49;;;;;;;5.00;1.40;;;;;;;18.68;61.88;100788.88;5002111;28;20494;-77
2021/07/29 11:14:23;;;;;;;2.93;1.50;;;;;;;18.29;60.38;100799.00;5003890;28;20490;-78
2021/07/29 11:16:50;;;;;;;3.67;1.20;;;;;;;17.91;59.87;100756.41;4999367;28;20507;-77
2021/07/29 11:19:15;;;;;;;5.60;1.40;;;;;;;17.74;61.08;100781.63;5004706;28;20451;-76